createdAt,value
2022-10-25T00:01:23.350Z,98450.28
2022-10-25T00:03:50.855Z,98454.03
2022-10-25T00:06:17.441Z,98459.28
2022-10-25T00:08:44.349Z,98455.66
2022-10-25T00:11:16.543Z,98455.59
2022-10-25T00:13:43.120Z,98453.72
2022-10-25T00:16:17.165Z,98451.59
2022-10-25T00:18:43.684Z,98450.13
2022-10-25T00:21:10.244Z,98455.19
2022-10-25T00:23:36.992Z,98453.63
2022-10-25T00:26:05.258Z,98458.75
2022-10-25T00:28:32.047Z,98446.88
2022-10-25T00:31:09.257Z,98458.34
2022-10-25T00:33:36.743Z,98461.63
2022-10-25T00:36:08.987Z,98459.31
2022-10-25T00:38:36.012Z,98457.19
2022-10-25T00:41:03.224Z,98459.19
2022-10-25T00:43:39.846Z,98462.88
2022-10-25T00:46:22.142Z,98459.69
2022-10-25T00:49:09.786Z,98453.13
2022-10-25T00:51:58.256Z,98465.94
2022-10-25T00:54:39.418Z,98465.19
2022-10-25T00:57:12.637Z,98458.13
2022-10-25T00:59:39.424Z,98452.50
2022-10-25T01:02:06.066Z,98450.84
2022-10-25T01:04:33.527Z,98456.66
2022-10-25T01:07:01.718Z,98455.97
2022-10-25T01:09:33.917Z,98462.34
2022-10-25T01:12:00.508Z,98465.13
2022-10-25T01:14:28.155Z,98460.88
2022-10-25T01:17:15.154Z,98462.72
2022-10-25T01:19:47.686Z,98460.06
2022-10-25T01:22:29.373Z,98469.91
2022-10-25T01:25:06.008Z,98452.56
2022-10-25T01:27:53.998Z,98444.56
2022-10-25T01:30:25.477Z,98444.59
2022-10-25T01:33:06.144Z,98450.31
2022-10-25T01:35:51.348Z,98440.97
2022-10-25T01:38:41.785Z,98438.59
2022-10-25T01:41:25.455Z,98449.91
2022-10-25T01:43:57.460Z,98439.19
2022-10-25T01:46:32.020Z,98442.22
2022-10-25T01:49:03.316Z,98443.75
2022-10-25T01:51:29.867Z,98435.59
2022-10-25T01:53:56.731Z,98444.25
2022-10-25T01:56:34.600Z,98452.13
2022-10-25T01:59:39.002Z,98453.88
2022-10-25T02:02:17.518Z,98460.00
2022-10-25T02:05:12.037Z,98455.59
2022-10-25T02:07:42.296Z,98454.44
2022-10-25T02:10:14.130Z,98458.94
2022-10-25T02:13:14.770Z,98454.69
2022-10-25T02:15:44.810Z,98453.06
2022-10-25T02:18:16.674Z,98460.34
2022-10-25T02:20:46.646Z,98460.34
2022-10-25T02:23:14.884Z,98459.59
2022-10-25T02:25:42.065Z,98456.41
2022-10-25T02:28:10.739Z,98460.66
2022-10-25T02:30:38.730Z,98456.22
2022-10-25T02:33:05.340Z,98453.94
2022-10-25T02:35:32.021Z,98459.69
2022-10-25T02:37:58.556Z,98456.63
2022-10-25T02:40:25.452Z,98457.06
2022-10-25T02:42:52.013Z,98448.63
2022-10-25T02:45:18.600Z,98455.72
2022-10-25T02:47:45.590Z,98449.16
2022-10-25T02:50:12.426Z,98454.09
2022-10-25T02:52:38.984Z,98446.63
2022-10-25T02:55:06.020Z,98444.91
2022-10-25T02:57:37.636Z,98441.31
2022-10-25T03:00:05.788Z,98450.66
2022-10-25T03:02:32.318Z,98444.03
2022-10-25T03:04:58.845Z,98440.19
2022-10-25T03:07:25.364Z,98438.94
2022-10-25T03:09:51.925Z,98434.84
2022-10-25T03:12:18.440Z,98428.53
2022-10-25T03:14:44.981Z,98442.13
2022-10-25T03:17:11.548Z,98442.25
2022-10-25T03:19:38.051Z,98441.00
2022-10-25T03:22:04.587Z,98439.69
2022-10-25T03:24:31.202Z,98439.19
2022-10-25T03:26:57.757Z,98445.25
2022-10-25T03:29:24.325Z,98442.31
2022-10-25T03:31:50.832Z,98445.97
2022-10-25T03:34:17.391Z,98454.69
2022-10-25T03:36:43.937Z,98453.22
2022-10-25T03:39:10.512Z,98445.59
2022-10-25T03:41:37.052Z,98451.31
2022-10-25T03:44:03.750Z,98451.47
2022-10-25T03:46:30.261Z,98451.16
2022-10-25T03:48:56.821Z,98463.84
2022-10-25T03:51:23.353Z,98459.34
2022-10-25T03:53:50.585Z,98454.28
2022-10-25T03:56:17.176Z,98466.63
2022-10-25T03:58:43.704Z,98467.53
2022-10-25T04:01:10.986Z,98461.97
2022-10-25T04:03:37.955Z,98463.59
2022-10-25T04:06:04.982Z,98460.09
2022-10-25T04:08:31.544Z,98467.88
2022-10-25T04:10:58.145Z,98471.25
2022-10-25T04:13:24.637Z,98477.88
2022-10-25T04:15:51.205Z,98470.50
2022-10-25T04:18:18.002Z,98472.78
2022-10-25T04:20:44.552Z,98462.63
2022-10-25T04:23:11.068Z,98464.91
2022-10-25T04:25:37.559Z,98463.69
2022-10-25T04:28:04.521Z,98461.16
2022-10-25T04:30:35.062Z,98461.97
2022-10-25T04:33:04.617Z,98463.28
2022-10-25T04:35:31.181Z,98459.19
2022-10-25T04:37:58.133Z,98459.69
2022-10-25T04:40:25.165Z,98473.13
2022-10-25T04:42:51.714Z,98472.38
2022-10-25T04:45:18.372Z,98464.59
2022-10-25T04:47:49.770Z,98480.00
2022-10-25T04:50:16.350Z,98474.09
2022-10-25T04:52:42.904Z,98477.59
2022-10-25T04:55:09.402Z,98467.53
2022-10-25T04:57:36.006Z,98470.09
2022-10-25T05:00:02.615Z,98471.31
2022-10-25T05:02:29.331Z,98478.34
2022-10-25T05:04:55.858Z,98481.13
2022-10-25T05:07:22.591Z,98487.34
2022-10-25T05:09:49.100Z,98494.31
2022-10-25T05:12:15.918Z,98486.94
2022-10-25T05:14:42.787Z,98488.75
2022-10-25T05:17:09.312Z,98491.78
2022-10-25T05:19:35.932Z,98487.34
2022-10-25T05:22:02.445Z,98483.25
2022-10-25T05:24:28.995Z,98488.41
2022-10-25T05:26:55.526Z,98483.44
2022-10-25T05:29:22.222Z,98490.47
2022-10-25T05:31:48.998Z,98492.16
2022-10-25T05:34:15.564Z,98494.41
2022-10-25T05:36:42.554Z,98494.41
2022-10-25T05:39:09.088Z,98492.91
2022-10-25T05:41:37.153Z,98491.63
2022-10-25T05:44:05.051Z,98494.16
2022-10-25T05:46:31.836Z,98493.97
2022-10-25T05:48:59.093Z,98496.59
2022-10-25T05:51:34.567Z,98506.09
2022-10-25T05:54:14.200Z,98505.38
2022-10-25T05:56:42.298Z,98503.56
2022-10-25T05:59:11.211Z,98509.97
2022-10-25T06:01:44.609Z,98516.25
2022-10-25T06:04:12.122Z,98522.16
2022-10-25T06:06:39.818Z,98524.13
2022-10-25T06:09:07.376Z,98523.25
2022-10-25T06:11:34.134Z,98526.59
2022-10-25T06:14:00.719Z,98535.53
2022-10-25T06:16:27.235Z,98529.75
2022-10-25T06:18:54.448Z,98532.84
2022-10-25T06:21:23.493Z,98530.28
2022-10-25T06:23:50.635Z,98534.72
2022-10-25T06:26:20.036Z,98540.47
2022-10-25T06:28:46.839Z,98546.53
2022-10-25T06:31:18.328Z,98552.69
2022-10-25T06:33:45.664Z,98554.56
2022-10-25T06:36:17.377Z,98565.66
2022-10-25T06:38:44.845Z,98572.66
2022-10-25T06:41:12.871Z,98574.28
2022-10-25T06:43:39.370Z,98578.56
2022-10-25T06:46:07.306Z,98579.03
2022-10-25T06:48:34.680Z,98581.09
2022-10-25T06:51:05.661Z,98580.00
2022-10-25T06:53:32.492Z,98579.84
2022-10-25T06:56:05.018Z,98582.31
2022-10-25T06:58:33.709Z,98593.88
2022-10-25T07:01:14.796Z,98591.41
2022-10-25T07:03:42.608Z,98590.31
2022-10-25T07:06:14.482Z,98595.06
2022-10-25T07:08:45.538Z,98597.63
2022-10-25T07:11:17.581Z,98596.91
2022-10-25T07:13:44.494Z,98597.56
2022-10-25T07:16:13.004Z,98596.09
2022-10-25T07:18:39.576Z,98604.41
2022-10-25T07:21:11.630Z,98607.38
2022-10-25T07:23:42.284Z,98602.47
2022-10-25T07:26:17.891Z,98613.31
2022-10-25T07:28:46.331Z,98606.38
2022-10-25T07:31:18.961Z,98613.19
2022-10-25T07:33:45.506Z,98603.63
2022-10-25T07:36:12.265Z,98607.00
2022-10-25T07:38:39.191Z,98611.00
2022-10-25T07:41:07.661Z,98616.19
2022-10-25T07:43:34.512Z,98611.56
2022-10-25T07:46:01.088Z,98618.84
2022-10-25T07:48:27.821Z,98620.59
2022-10-25T07:50:54.298Z,98616.28
2022-10-25T07:53:20.876Z,98617.50
2022-10-25T07:55:55.386Z,98618.28
2022-10-25T07:58:22.295Z,98622.44
2022-10-25T08:00:49.020Z,98625.66
2022-10-25T08:03:17.037Z,98619.31
2022-10-25T08:05:47.652Z,98626.13
2022-10-25T08:08:15.219Z,98620.69
2022-10-25T08:10:42.821Z,98610.81
2022-10-25T08:13:09.515Z,98616.41
2022-10-25T08:15:36.370Z,98614.78
2022-10-25T08:18:04.207Z,98620.53
2022-10-25T08:20:56.460Z,98624.06
2022-10-25T08:23:17.174Z,98619.66
2022-10-25T08:25:43.798Z,98620.41
2022-10-25T08:28:10.608Z,98621.56
2022-10-25T08:30:37.401Z,98631.00
2022-10-25T08:33:04.320Z,98629.97
2022-10-25T08:35:32.450Z,98626.72
2022-10-25T08:38:03.599Z,98628.19
2022-10-25T08:40:39.228Z,98622.00
2022-10-25T08:43:53.529Z,98619.78
2022-10-25T08:46:28.294Z,98625.69
2022-10-25T08:49:12.763Z,98627.31
2022-10-25T08:51:40.828Z,98631.72
2022-10-25T08:54:21.528Z,98628.19
2022-10-25T08:57:03.443Z,98633.34
2022-10-25T08:59:39.630Z,98629.53
2022-10-25T09:02:17.793Z,98634.25
2022-10-25T09:04:45.032Z,98627.59
2022-10-25T09:07:19.728Z,98632.16
2022-10-25T09:09:58.877Z,98638.50
2022-10-25T09:12:30.749Z,98642.00
2022-10-25T09:15:19.882Z,98642.28
2022-10-25T09:17:51.439Z,98641.84
2022-10-25T09:20:27.286Z,98643.44
2022-10-25T09:23:00.596Z,98639.16
2022-10-25T09:25:36.512Z,98635.88
2022-10-25T09:28:08.976Z,98632.94
2022-10-25T09:30:38.100Z,98632.19
2022-10-25T09:33:11.097Z,98636.59
2022-10-25T09:35:54.887Z,98634.81
2022-10-25T09:38:38.791Z,98637.16
2022-10-25T09:41:25.610Z,98630.22
2022-10-25T09:44:07.005Z,98627.56
2022-10-25T09:46:45.523Z,98632.25
2022-10-25T09:49:24.263Z,98631.13
2022-10-25T09:52:21.915Z,98632.59
2022-10-25T09:54:55.272Z,98633.56
2022-10-25T09:57:21.928Z,98628.31
2022-10-25T09:59:50.355Z,98631.25
2022-10-25T10:02:25.447Z,98633.34
2022-10-25T10:04:52.454Z,98630.28
2022-10-25T10:07:29.446Z,98634.59
2022-10-25T10:09:58.154Z,98631.47
2022-10-25T10:12:28.489Z,98626.94
2022-10-25T10:15:04.997Z,98625.31
2022-10-25T10:17:31.588Z,98632.22
2022-10-25T10:20:10.354Z,98625.44
2022-10-25T10:22:57.137Z,98629.72
2022-10-25T10:25:27.801Z,98630.34
2022-10-25T10:27:56.821Z,98627.56
2022-10-25T10:30:28.873Z,98621.09
2022-10-25T10:33:06.428Z,98618.88
2022-10-25T10:35:35.436Z,98614.47
2022-10-25T10:38:27.409Z,98607.69
2022-10-25T10:41:15.902Z,98602.25
2022-10-25T10:43:42.701Z,98604.69
2022-10-25T10:46:15.288Z,98599.66
2022-10-25T10:48:44.254Z,98591.50
2022-10-25T10:51:31.666Z,98593.88
2022-10-25T10:54:32.528Z,98585.97
2022-10-25T10:57:04.427Z,98580.03
2022-10-25T10:59:35.840Z,98580.25
2022-10-25T11:02:28.766Z,98580.28
2022-10-25T11:04:56.384Z,98586.13
2022-10-25T11:07:34.883Z,98579.91
2022-10-25T11:10:16.664Z,98577.31
2022-10-25T11:12:44.066Z,98575.94
2022-10-25T11:15:14.668Z,98578.28
2022-10-25T11:17:53.752Z,98572.13
2022-10-25T11:20:31.953Z,98573.34
2022-10-25T11:23:23.538Z,98571.81
2022-10-25T11:25:58.319Z,98567.66
2022-10-25T11:28:53.772Z,98571.88
2022-10-25T11:31:58.865Z,98564.16
2022-10-25T11:34:28.722Z,98561.78
2022-10-25T11:37:23.663Z,98557.72
2022-10-25T11:40:03.827Z,98558.13
2022-10-25T11:42:43.142Z,98559.16
2022-10-25T11:45:46.805Z,98560.53
2022-10-25T11:48:31.615Z,98558.34
2022-10-25T11:51:06.453Z,98567.16
2022-10-25T11:53:51.756Z,98559.69
2022-10-25T11:56:36.607Z,98568.00
2022-10-25T11:59:45.160Z,98572.66
2022-10-25T12:05:01.504Z,98570.28
2022-10-25T12:07:41.310Z,98569.19
2022-10-25T12:10:08.053Z,98569.78
2022-10-25T12:12:46.846Z,98565.63
2022-10-25T12:15:21.583Z,98574.88
2022-10-25T12:17:48.790Z,98572.84
2022-10-25T12:20:27.007Z,98573.28
2022-10-25T12:22:57.173Z,98575.72
2022-10-25T12:25:30.784Z,98576.03
2022-10-25T12:28:09.432Z,98571.16
2022-10-25T12:30:36.092Z,98570.81
2022-10-25T12:33:28.618Z,98562.69
2022-10-25T12:35:59.490Z,98558.53
2022-10-25T12:38:33.246Z,98564.59
2022-10-25T12:41:04.876Z,98558.41
2022-10-25T12:43:49.542Z,98559.44
2022-10-25T12:46:34.903Z,98559.72
2022-10-25T12:49:17.454Z,98559.78
2022-10-25T12:52:11.309Z,98553.56
2022-10-25T12:55:07.038Z,98554.94
2022-10-25T12:57:59.769Z,98550.28
2022-10-25T13:00:28.741Z,98553.22
2022-10-25T13:03:01.291Z,98544.88
2022-10-25T13:05:54.034Z,98551.00
2022-10-25T13:08:22.413Z,98542.19
2022-10-25T13:10:57.312Z,98537.81
2022-10-25T13:13:26.547Z,98544.44
2022-10-25T13:15:57.146Z,98536.63
2022-10-25T13:18:47.982Z,98547.72
2022-10-25T13:21:34.561Z,98536.47
2022-10-25T13:24:03.081Z,98540.28
2022-10-25T13:26:32.159Z,98539.94
2022-10-25T13:29:01.984Z,98544.56
2022-10-25T13:31:31.826Z,98545.47
2022-10-25T13:34:28.416Z,98549.03
2022-10-25T13:36:57.402Z,98534.16
2022-10-25T13:39:38.453Z,98544.53
2022-10-25T13:42:14.679Z,98548.47
2022-10-25T13:44:50.939Z,98537.84
2022-10-25T13:47:37.677Z,98531.72
2022-10-25T13:50:31.256Z,98530.88
2022-10-25T13:53:10.051Z,98530.84
2022-10-25T13:55:39.911Z,98535.47
2022-10-25T13:58:40.103Z,98535.81
2022-10-25T14:01:16.650Z,98528.69
2022-10-25T14:03:48.480Z,98526.72
2022-10-25T14:06:46.333Z,98526.09
2022-10-25T14:09:23.037Z,98518.38
2022-10-25T14:12:11.871Z,98521.25
2022-10-25T14:14:48.388Z,98512.22
2022-10-25T14:17:21.510Z,98512.34
2022-10-25T14:19:52.486Z,98515.28
2022-10-25T14:22:40.389Z,98514.31
2022-10-25T14:25:25.303Z,98522.41
2022-10-25T14:28:10.485Z,98510.56
2022-10-25T14:30:45.500Z,98519.13
2022-10-25T14:33:28.965Z,98510.91
2022-10-25T14:36:09.008Z,98510.31
2022-10-25T14:38:51.376Z,98507.41
2022-10-25T14:41:27.221Z,98506.81
2022-10-25T14:43:54.614Z,98507.53
2022-10-25T14:46:23.503Z,98502.66
2022-10-25T14:48:57.433Z,98513.03
2022-10-25T14:51:28.527Z,98503.25
2022-10-25T14:53:59.479Z,98509.75
2022-10-25T14:56:35.029Z,98496.19
2022-10-25T14:59:03.131Z,98500.09
2022-10-25T15:01:30.292Z,98502.53
2022-10-25T15:03:59.444Z,98496.56
2022-10-25T15:06:29.154Z,98502.44
2022-10-25T15:09:29.082Z,98499.34
2022-10-25T15:12:14.141Z,98492.38
2022-10-25T15:14:44.196Z,98496.28
2022-10-25T15:17:17.729Z,98493.13
2022-10-25T15:20:17.628Z,98488.22
2022-10-25T15:22:49.583Z,98487.25
2022-10-25T15:25:25.612Z,98491.50
2022-10-25T15:27:56.585Z,98494.94
2022-10-25T15:30:36.440Z,98498.31
2022-10-25T15:33:05.237Z,98493.44
2022-10-25T15:35:33.439Z,98491.09
2022-10-25T15:38:00.280Z,98491.84
2022-10-25T15:40:28.595Z,98488.53
2022-10-25T15:42:58.275Z,98487.06
2022-10-25T15:45:25.300Z,98479.72
2022-10-25T15:47:55.160Z,98488.97
2022-10-25T15:50:22.845Z,98483.84
2022-10-25T15:52:50.206Z,98477.34
2022-10-25T15:55:23.298Z,98480.84
2022-10-25T15:57:52.807Z,98483.75
2022-10-25T16:00:27.971Z,98487.06
2022-10-25T16:02:56.150Z,98489.22
2022-10-25T16:05:32.989Z,98488.69
2022-10-25T16:08:01.300Z,98486.69
2022-10-25T16:10:29.414Z,98490.28
2022-10-25T16:13:05.467Z,98493.94
2022-10-25T16:15:32.921Z,98484.00
2022-10-25T16:18:02.734Z,98483.88
2022-10-25T16:20:30.756Z,98483.78
2022-10-25T16:22:57.585Z,98477.03
2022-10-25T16:25:29.152Z,98474.09
2022-10-25T16:27:59.596Z,98476.16
2022-10-25T16:30:30.041Z,98469.53
2022-10-25T16:32:56.614Z,98480.75
2022-10-25T16:35:24.608Z,98475.69
2022-10-25T16:37:52.230Z,98469.91
2022-10-25T16:40:21.176Z,98480.84
2022-10-25T16:42:49.675Z,98477.31
2022-10-25T16:45:28.999Z,98471.72
2022-10-25T16:47:56.957Z,98482.16
2022-10-25T16:50:25.026Z,98481.88
2022-10-25T16:52:52.470Z,98474.94
2022-10-25T16:55:19.957Z,98476.13
2022-10-25T17:00:18.064Z,98474.38
2022-10-25T17:02:44.672Z,98473.19
2022-10-25T17:05:22.911Z,98475.09
2022-10-25T17:07:49.902Z,98468.31
2022-10-25T17:10:17.806Z,98476.84
2022-10-25T17:12:51.027Z,98469.97
2022-10-25T17:15:18.696Z,98478.50
2022-10-25T17:17:46.302Z,98469.97
2022-10-25T17:20:15.212Z,98464.53
2022-10-25T17:22:42.198Z,98462.34
2022-10-25T17:25:09.443Z,98463.53
2022-10-25T17:27:38.080Z,98456.47
2022-10-25T17:30:05.974Z,98458.38
2022-10-25T17:32:32.473Z,98450.41
2022-10-25T17:34:59.016Z,98463.69
2022-10-25T17:37:25.550Z,98459.88
2022-10-25T17:39:52.169Z,98465.59
2022-10-25T17:42:21.361Z,98457.69
2022-10-25T17:44:47.947Z,98460.91
2022-10-25T17:47:14.939Z,98454.41
2022-10-25T17:49:41.873Z,98454.31
2022-10-25T17:52:09.773Z,98459.16
2022-10-25T17:54:38.434Z,98461.81
2022-10-25T17:57:05.876Z,98461.81
2022-10-25T17:59:33.026Z,98463.47
2022-10-25T18:01:59.833Z,98455.38
2022-10-25T18:04:26.521Z,98455.06
2022-10-25T18:06:53.180Z,98458.44
2022-10-25T18:09:19.741Z,98459.06
2022-10-25T18:11:46.300Z,98460.66
2022-10-25T18:14:12.967Z,98457.88
2022-10-25T18:16:41.345Z,98461.25
2022-10-25T18:19:12.087Z,98465.38
2022-10-25T18:21:38.655Z,98460.53
2022-10-25T18:24:05.457Z,98459.91
2022-10-25T18:26:33.538Z,98459.50
2022-10-25T18:29:00.246Z,98460.22
2022-10-25T18:31:27.165Z,98459.34
2022-10-25T18:33:59.051Z,98457.88
2022-10-25T18:36:27.398Z,98456.41
2022-10-25T18:38:54.637Z,98462.00
2022-10-25T18:41:27.067Z,98460.38
2022-10-25T18:43:54.874Z,98460.97
2022-10-25T18:46:21.641Z,98457.88
2022-10-25T18:48:52.413Z,98462.72
2022-10-25T18:51:19.934Z,98461.53
2022-10-25T18:53:46.486Z,98457.41
2022-10-25T18:56:17.055Z,98460.25
2022-10-25T18:58:46.672Z,98461.25
2022-10-25T19:01:15.516Z,98460.25
2022-10-25T19:03:42.545Z,98466.13
2022-10-25T19:06:09.648Z,98460.69
2022-10-25T19:08:36.928Z,98456.28
2022-10-25T19:11:11.333Z,98450.81
2022-10-25T19:13:38.716Z,98447.13
2022-10-25T19:16:05.482Z,98438.03
2022-10-25T19:18:33.063Z,98434.78
2022-10-25T19:21:05.581Z,98440.38
2022-10-25T19:23:33.018Z,98443.75
2022-10-25T19:26:04.810Z,98436.69
2022-10-25T19:28:32.029Z,98437.72
2022-10-25T19:31:04.909Z,98431.97
2022-10-25T19:33:31.512Z,98427.25
2022-10-25T19:36:02.978Z,98431.53
2022-10-25T19:38:29.786Z,98430.94
2022-10-25T19:41:01.645Z,98425.22
2022-10-25T19:43:28.232Z,98431.06
2022-10-25T19:45:58.904Z,98432.72
2022-10-25T19:48:25.511Z,98433.16
2022-10-25T19:50:52.649Z,98437.25
2022-10-25T19:53:19.287Z,98436.81
2022-10-25T19:55:56.895Z,98437.13
2022-10-25T19:58:23.525Z,98428.59
2022-10-25T20:00:50.103Z,98433.31
2022-10-25T20:03:16.664Z,98427.13
2022-10-25T20:05:43.149Z,98424.31
2022-10-25T20:08:09.658Z,98429.19
2022-10-25T20:10:36.174Z,98420.22
2022-10-25T20:13:04.790Z,98415.38
2022-10-25T20:15:31.399Z,98417.13
2022-10-25T20:17:58.058Z,98416.69
2022-10-25T20:20:24.649Z,98412.41
2022-10-25T20:22:51.119Z,98411.97
2022-10-25T20:25:17.640Z,98418.72
2022-10-25T20:27:44.247Z,98416.69
2022-10-25T20:30:10.874Z,98411.69
2022-10-25T20:32:37.378Z,98412.13
2022-10-25T20:37:36.086Z,98414.31
2022-10-25T20:40:03.809Z,98416.38
2022-10-25T20:42:30.400Z,98414.31
2022-10-25T20:44:56.959Z,98414.03
2022-10-25T20:47:23.652Z,98408.28
2022-10-25T20:49:50.269Z,98408.00
2022-10-25T20:52:17.130Z,98405.44
2022-10-25T20:54:43.725Z,98411.47
2022-10-25T20:57:10.299Z,98409.41
2022-10-25T20:59:36.861Z,98393.38
2022-10-25T21:02:03.480Z,98397.66
2022-10-25T21:04:42.454Z,98405.75
2022-10-25T21:07:16.101Z,98410.28
2022-10-25T21:09:47.039Z,98405.72
2022-10-25T21:12:15.773Z,98401.50
2022-10-25T21:14:42.686Z,98396.63
2022-10-25T21:17:09.226Z,98393.53
2022-10-25T21:19:35.781Z,98385.31
2022-10-25T21:22:02.404Z,98382.97
2022-10-25T21:24:29.459Z,98385.16
2022-10-25T21:26:56.037Z,98388.44
2022-10-25T21:29:22.559Z,98387.09
2022-10-25T21:31:49.078Z,98385.50
2022-10-25T21:34:15.675Z,98385.81
2022-10-25T21:36:42.329Z,98395.34
2022-10-25T21:39:09.286Z,98405.66
2022-10-25T21:41:35.895Z,98381.25
2022-10-25T21:44:02.481Z,98379.91
2022-10-25T21:46:29.195Z,98380.06
2022-10-25T21:48:55.944Z,98381.53
2022-10-25T21:51:24.375Z,98378.75
2022-10-25T21:53:53.938Z,98383.59
2022-10-25T21:56:23.238Z,98382.28
2022-10-25T21:58:50.879Z,98374.63
2022-10-25T22:01:22.539Z,98375.66
2022-10-25T22:03:49.270Z,98366.84
2022-10-25T22:06:17.542Z,98352.88
2022-10-25T22:08:44.592Z,98332.13
2022-10-25T22:11:13.925Z,98341.97
2022-10-25T22:13:41.350Z,98349.78
2022-10-25T22:16:10.893Z,98341.25
2022-10-25T22:18:37.433Z,98330.66
2022-10-25T22:21:06.469Z,98354.59
2022-10-25T22:23:33.612Z,98365.66
2022-10-25T22:26:05.772Z,98356.38
2022-10-25T22:28:35.398Z,98358.88
2022-10-25T22:31:07.676Z,98369.16
2022-10-25T22:33:34.997Z,98371.50
2022-10-25T22:38:31.161Z,98363.56
2022-10-25T22:40:59.263Z,98354.47
2022-10-25T22:43:26.343Z,98354.75
2022-10-25T22:45:53.325Z,98353.00
2022-10-25T22:48:19.932Z,98351.66
2022-10-25T22:50:53.660Z,98343.16
2022-10-25T22:53:21.136Z,98342.53
2022-10-25T22:55:58.073Z,98335.81
2022-10-25T22:58:26.197Z,98334.91
2022-10-25T23:00:59.280Z,98346.81
2022-10-25T23:03:26.261Z,98344.47
2022-10-25T23:05:58.106Z,98345.34
2022-10-25T23:08:25.537Z,98345.66
2022-10-25T23:11:05.365Z,98349.16
2022-10-25T23:13:33.519Z,98338.72
2022-10-25T23:16:00.625Z,98329.75
2022-10-25T23:18:27.265Z,98316.22
2022-10-25T23:20:55.846Z,98304.88
2022-10-25T23:23:23.189Z,98314.44
2022-10-25T23:25:50.275Z,98325.06
2022-10-25T23:28:16.763Z,98317.69
2022-10-25T23:30:43.778Z,98311.22
2022-10-25T23:33:11.741Z,98329.94
2022-10-25T23:35:39.433Z,98352.09
2022-10-25T23:38:06.454Z,98347.41
2022-10-25T23:40:33.184Z,98351.66
2022-10-25T23:43:00.437Z,98347.84
2022-10-25T23:45:27.533Z,98339.78
2022-10-25T23:47:54.569Z,98332.28
2022-10-25T23:50:21.161Z,98328.44
2022-10-25T23:52:47.876Z,98337.56
2022-10-25T23:55:14.744Z,98327.56
2022-10-25T23:57:41.334Z,98318.63
